Aromas, CA

1:08 AM PDT on September 03, 2014 (GMT -0700)
Aromas Heights | Change Station
CLOSE
Current Station
Personal Weather Station
Location: Aromas, CA
Elevation: 160 ft
Nearby Weather Stations

Elev 160 ft 36.89 °N, 121.65 °W | Updated 6 seconds ago

Overcast
Overcast
59.6 °F
Feels Like 59.6 °F
N
0.0
Wind Variable Wind from WSW
Gusts 1.0 mph

Today
High -- | Low -- °F
--% Chance of Precip.
Yesterday
High -- | Low -- °F
Precip. -- in
6:39 AM 7:31 PM
First Quarter, 60% visible
Pressure 29.81 in
Visibility 10.0 miles
Clouds Overcast 500 ft
Dew Point 58 °F
Humidity 94%
Rainfall 0.00 in
Snow Depth Not available.
UV 0 out of 12
Pollen 7.30 out of 12
Air Quality Not available.
Flu Activity Not available.
METAR KWVI 030753Z AUTO 00000KT 10SM OVC005 16/14 A2981 RMK AO2 SLP095 T01610139 402000161

More Conditions Fewer Conditions

Pressure 29.81 in
Visibility 10.0 miles
Clouds Overcast 500 ft
Dew Point 58 °F
Humidity 94%
Rainfall 0.00 in
Snow Depth Not available.
UV 0 out of 12
Pollen 7.30 out of 12
Air Quality Not available.
Flu Activity Not available.
METAR KWVI 030753Z AUTO 00000KT 10SM OVC005 16/14 A2981 RMK AO2 SLP095 T01610139 402000161

More Conditions Fewer Conditions

10-Day Weather Forecast

Almanac

Astronomy

Sep. 03, 2014 Rise Set
Actual Time 6:39 AM PDT 7:31 PM PDT
Civil Twilight 6:12 AM PDT 7:58 PM PDT
Nautical Twilight 5:41 AM PDT 8:29 PM PDT
Astronomical Twilight 5:09 AM PDT 9:01 PM PDT
Moon 3:14 PM PDT 12:42 AM PDT
Length of Visible Light 13h 45m
Length of Day
12h 52m
Tomorrow will be 2m 16s shorter.
First Quarter, 60% of the Moon is Illuminated
Today
First Quarter
Sep 8
Full
Sep 15
Last Quarter
Sep 24
New
Oct 1
First Quarter

Today's Extremes

State Highs State Lows

Community

WunderPhotos

Upload Photos

1,749,902 photos uploaded!

Nearby

Snow Depth

Station Depth Elevation
Leavitt Lake 0 in 9400 ft
Blue Lakes 0 in 8000 ft
Leavitt Meadows 1 in 7200 ft
Forestdale Creek 0 in 8029 ft
Summit Meadow 1 in 9122 ft

Earthquake Activity

City Distance Mag. Time & Date
Cobb, California 147 miles 2.5 12:00 PM PDT
2014-09-02
Yountville, California 110 miles 2.6 1:15 PM PDT
2014-09-01
Gilroy, California 11 miles 3.4 9:10 AM PDT
2014-09-01
Green Valley, California 99 miles 2.5 6:37 AM PDT
2014-08-31
Minimum magnitude displayed is 2.5.

Coastal Water Temperatures

Place Temperature
Monterey, CA 66.0 °F
Redwood City, CA 73.9 °F

Nearby Weather Stations